createdAt,value
2017-03-31T00:00:07.552Z,1019.57
2017-03-31T00:01:07.583Z,1019.58
2017-03-31T00:02:07.601Z,1019.64
2017-03-31T00:03:07.626Z,1019.63
2017-03-31T00:04:07.676Z,1019.59
2017-03-31T00:05:07.708Z,1019.56
2017-03-31T00:06:07.745Z,1019.61
2017-03-31T00:07:07.767Z,1019.56
2017-03-31T00:08:07.802Z,1019.6
2017-03-31T00:09:07.832Z,1019.54
2017-03-31T00:10:07.861Z,1019.56
2017-03-31T00:11:07.896Z,1019.6
2017-03-31T00:12:07.924Z,1019.57
2017-03-31T00:13:07.962Z,1019.57
2017-03-31T00:14:07.989Z,1019.56
2017-03-31T00:15:08.021Z,1019.57
2017-03-31T00:16:08.035Z,1019.56
2017-03-31T00:17:08.084Z,1019.53
2017-03-31T00:18:08.113Z,1019.54
2017-03-31T00:19:08.149Z,1019.56
2017-03-31T00:20:08.181Z,1019.51
2017-03-31T00:21:08.196Z,1019.51
2017-03-31T00:22:08.239Z,1019.5
2017-03-31T00:23:08.275Z,1019.49
2017-03-31T00:24:08.286Z,1019.47
2017-03-31T00:25:08.336Z,1019.45
2017-03-31T00:26:08.368Z,1019.43
2017-03-31T00:27:08.399Z,1019.44
2017-03-31T00:28:08.417Z,1019.43
2017-03-31T00:29:08.463Z,1019.46
2017-03-31T00:30:08.513Z,1019.43
2017-03-31T00:31:08.526Z,1019.45
2017-03-31T00:32:08.536Z,1019.45
2017-03-31T00:33:08.582Z,1019.48
2017-03-31T00:34:08.619Z,1019.46
2017-03-31T00:35:08.651Z,1019.4
2017-03-31T00:36:08.679Z,1019.45
2017-03-31T00:37:08.718Z,1019.43
2017-03-31T00:38:08.752Z,1019.38
2017-03-31T00:39:08.781Z,1019.36
2017-03-31T00:40:08.811Z,1019.36
2017-03-31T00:41:08.841Z,1019.34
2017-03-31T00:42:08.871Z,1019.35
2017-03-31T00:43:08.901Z,1019.35
2017-03-31T00:44:08.935Z,1019.33
2017-03-31T00:45:08.966Z,1019.31
2017-03-31T00:46:09.001Z,1019.34
2017-03-31T00:47:09.028Z,1019.31
2017-03-31T00:48:09.062Z,1019.3
2017-03-31T00:49:09.079Z,1019.26
2017-03-31T00:50:09.121Z,1019.26
2017-03-31T00:51:09.143Z,1019.25
2017-03-31T00:52:09.182Z,1019.19
2017-03-31T00:53:09.215Z,1019.18
2017-03-31T00:54:09.248Z,1019.23
2017-03-31T00:55:09.262Z,1019.17
2017-03-31T00:56:09.306Z,1019.18
2017-03-31T00:57:09.343Z,1019.14
2017-03-31T00:58:09.376Z,1019.16
2017-03-31T00:59:09.405Z,1019.16
2017-03-31T01:00:09.437Z,1019.1
2017-03-31T01:01:09.466Z,1019.07
2017-03-31T01:02:09.503Z,1019.04
2017-03-31T01:03:09.530Z,1019.09
2017-03-31T01:04:09.564Z,1019.03
2017-03-31T01:05:09.577Z,1019.05
2017-03-31T01:06:09.624Z,1019.03
2017-03-31T01:07:09.653Z,1019.01
2017-03-31T01:08:09.687Z,1019.03
2017-03-31T01:09:09.715Z,1018.99
2017-03-31T01:10:09.749Z,1019.01
2017-03-31T01:11:09.765Z,1018.94
2017-03-31T01:12:09.812Z,1019
2017-03-31T01:13:09.843Z,1018.98
2017-03-31T01:14:09.871Z,1018.95
2017-03-31T01:15:09.904Z,1018.98
2017-03-31T01:16:09.938Z,1018.96
2017-03-31T01:17:09.967Z,1018.94
2017-03-31T01:18:09.999Z,1018.92
2017-03-31T01:19:10.031Z,1018.92
2017-03-31T01:20:10.056Z,1018.93
2017-03-31T01:21:10.104Z,1018.86
2017-03-31T01:22:10.104Z,1018.85
2017-03-31T01:23:10.154Z,1018.9
2017-03-31T01:24:10.171Z,1018.88
2017-03-31T01:25:10.217Z,1018.9
2017-03-31T01:26:10.246Z,1018.84
2017-03-31T01:27:10.282Z,1018.8
2017-03-31T01:28:10.286Z,1018.85
2017-03-31T01:29:10.340Z,1018.83
2017-03-31T01:30:10.367Z,1018.76
2017-03-31T01:31:10.380Z,1018.76
2017-03-31T01:32:10.434Z,1018.77
2017-03-31T01:33:10.464Z,1018.72
2017-03-31T01:34:10.497Z,1018.75
2017-03-31T01:35:10.507Z,1018.73
2017-03-31T01:36:10.564Z,1018.69
2017-03-31T01:37:10.592Z,1018.68
2017-03-31T01:38:10.650Z,1018.73
2017-03-31T01:39:10.650Z,1018.69
2017-03-31T01:40:10.686Z,1018.7
2017-03-31T01:41:10.689Z,1018.66
2017-03-31T01:42:10.743Z,1018.67
2017-03-31T01:43:10.773Z,1018.63
2017-03-31T01:44:10.804Z,1018.68
2017-03-31T01:45:10.819Z,1018.61
2017-03-31T01:46:10.870Z,1018.59
2017-03-31T01:47:10.899Z,1018.57
2017-03-31T01:48:10.929Z,1018.54
2017-03-31T01:49:10.956Z,1018.56
2017-03-31T01:50:10.994Z,1018.57
2017-03-31T01:51:11.009Z,1018.53
2017-03-31T01:52:11.050Z,1018.54
2017-03-31T01:53:11.062Z,1018.54
2017-03-31T01:54:11.119Z,1018.53
2017-03-31T01:55:11.147Z,1018.53
2017-03-31T01:56:11.177Z,1018.5
2017-03-31T01:57:11.210Z,1018.48
2017-03-31T01:58:11.238Z,1018.43
2017-03-31T01:59:11.271Z,1018.44
2017-03-31T02:00:11.304Z,1018.46
2017-03-31T02:01:11.312Z,1018.47
2017-03-31T02:02:11.363Z,1018.49
2017-03-31T02:03:11.390Z,1018.46
2017-03-31T02:04:11.421Z,1018.43
2017-03-31T02:05:11.452Z,1018.4
2017-03-31T02:06:11.683Z,1018.39
2017-03-31T02:07:11.523Z,1018.44
2017-03-31T02:08:11.529Z,1018.38
2017-03-31T02:09:11.579Z,1018.37
2017-03-31T02:10:11.605Z,1018.37
2017-03-31T02:11:11.638Z,1018.31
2017-03-31T02:12:11.672Z,1018.36
2017-03-31T02:13:11.701Z,1018.37
2017-03-31T02:14:11.734Z,1018.33
2017-03-31T02:15:11.761Z,1018.31
2017-03-31T02:16:11.797Z,1018.34
2017-03-31T02:17:11.826Z,1018.35
2017-03-31T02:18:11.854Z,1018.38
2017-03-31T02:19:11.887Z,1018.31
2017-03-31T02:20:11.915Z,1018.34
2017-03-31T02:21:11.929Z,1018.3
2017-03-31T02:22:11.977Z,1018.32
2017-03-31T02:23:12.006Z,1018.3
2017-03-31T02:24:12.037Z,1018.31
2017-03-31T02:25:12.069Z,1018.28
2017-03-31T02:26:12.100Z,1018.31
2017-03-31T02:27:12.127Z,1018.25
2017-03-31T02:28:12.161Z,1018.26
2017-03-31T02:29:12.191Z,1018.32
2017-03-31T02:30:12.219Z,1018.25
2017-03-31T02:31:12.245Z,1018.19
2017-03-31T02:32:12.282Z,1018.21
2017-03-31T02:33:12.301Z,1018.18
2017-03-31T02:34:12.344Z,1018.26
2017-03-31T02:35:12.378Z,1018.22
2017-03-31T02:36:12.423Z,1018.25
2017-03-31T02:37:12.438Z,1018.2
2017-03-31T02:38:12.444Z,1018.15
2017-03-31T02:39:12.500Z,1018.14
2017-03-31T02:40:12.529Z,1018.13
2017-03-31T02:41:12.561Z,1018.2
2017-03-31T02:42:12.589Z,1018.16
2017-03-31T02:43:12.623Z,1018.14
2017-03-31T02:44:12.648Z,1018.1
2017-03-31T02:45:12.676Z,1018.13
2017-03-31T02:46:12.711Z,1018.07
2017-03-31T02:47:12.742Z,1018.09
2017-03-31T02:48:12.772Z,1018.08
2017-03-31T02:49:12.804Z,1018.07
2017-03-31T02:50:12.834Z,1018.06
2017-03-31T02:51:12.866Z,1018.05
2017-03-31T02:52:12.898Z,1018.04
2017-03-31T02:53:12.924Z,1018.01
2017-03-31T02:54:12.957Z,1018.07
2017-03-31T02:55:12.986Z,1017.95
2017-03-31T02:56:13.000Z,1018.03
2017-03-31T02:57:13.044Z,1018.03
2017-03-31T02:58:13.075Z,1018.03
2017-03-31T02:59:13.103Z,1017.99
2017-03-31T03:00:13.140Z,1018.02
2017-03-31T03:01:13.168Z,1018.02
2017-03-31T03:02:13.205Z,1018.01
2017-03-31T03:03:13.247Z,1017.98
2017-03-31T03:04:13.256Z,1017.99
2017-03-31T03:05:13.280Z,1017.97
2017-03-31T03:06:13.300Z,1018
2017-03-31T03:07:13.350Z,1017.99
2017-03-31T03:08:13.377Z,1017.96
2017-03-31T03:09:13.386Z,1017.95
2017-03-31T03:10:13.438Z,1017.98
2017-03-31T03:11:13.469Z,1017.96
2017-03-31T03:12:13.500Z,1017.94
2017-03-31T03:13:13.529Z,1017.93
2017-03-31T03:14:13.540Z,1017.99
2017-03-31T03:15:13.591Z,1018.02
2017-03-31T03:16:13.627Z,1017.95
2017-03-31T03:17:13.645Z,1018.01
2017-03-31T03:18:13.684Z,1017.94
2017-03-31T03:19:13.688Z,1017.93
2017-03-31T03:20:13.744Z,1017.95
2017-03-31T03:21:13.770Z,1017.85
2017-03-31T03:22:13.799Z,1017.89
2017-03-31T03:23:13.829Z,1017.87
2017-03-31T03:24:13.857Z,1017.89
2017-03-31T03:25:13.896Z,1017.93
2017-03-31T03:26:13.924Z,1017.87
2017-03-31T03:27:13.950Z,1017.84
2017-03-31T03:28:13.979Z,1017.85
2017-03-31T03:29:14.009Z,1017.86
2017-03-31T03:30:14.040Z,1017.88
2017-03-31T03:31:14.075Z,1017.88
2017-03-31T03:32:14.100Z,1017.82
2017-03-31T03:33:14.130Z,1017.85
2017-03-31T03:34:14.166Z,1017.82
2017-03-31T03:35:14.196Z,1017.8
2017-03-31T03:36:14.217Z,1017.81
2017-03-31T03:37:14.253Z,1017.78
2017-03-31T03:38:14.287Z,1017.72
2017-03-31T03:39:14.300Z,1017.75
2017-03-31T03:40:14.343Z,1017.72
2017-03-31T03:41:14.375Z,1017.71
2017-03-31T03:42:14.402Z,1017.73
2017-03-31T03:43:14.432Z,1017.7
2017-03-31T03:44:14.465Z,1017.7
2017-03-31T03:45:14.501Z,1017.72
2017-03-31T03:46:14.526Z,1017.7
2017-03-31T03:47:14.552Z,1017.73
2017-03-31T03:48:14.586Z,1017.64
2017-03-31T03:49:14.600Z,1017.64
2017-03-31T03:50:14.643Z,1017.63
2017-03-31T03:51:14.674Z,1017.61
2017-03-31T03:52:14.701Z,1017.63
2017-03-31T03:53:14.734Z,1017.65
2017-03-31T03:54:14.765Z,1017.66
2017-03-31T03:55:15.145Z,1017.6
2017-03-31T03:56:14.825Z,1017.63
2017-03-31T03:57:14.855Z,1017.6
2017-03-31T03:58:14.884Z,1017.61
2017-03-31T03:59:14.891Z,1017.62
2017-03-31T04:00:14.955Z,1017.65
2017-03-31T04:01:14.980Z,1017.58
2017-03-31T04:02:15.001Z,1017.57
2017-03-31T04:03:15.032Z,1017.63
2017-03-31T04:04:15.100Z,1017.63
2017-03-31T04:05:15.098Z,1017.64
2017-03-31T04:06:15.131Z,1017.58
2017-03-31T04:07:15.152Z,1017.61
2017-03-31T04:08:15.221Z,1017.6
2017-03-31T04:09:15.224Z,1017.57
2017-03-31T04:10:15.251Z,1017.6
2017-03-31T04:11:15.282Z,1017.62
2017-03-31T04:12:15.300Z,1017.65
2017-03-31T04:13:15.338Z,1017.62
2017-03-31T04:14:15.367Z,1017.59
2017-03-31T04:15:15.406Z,1017.63
2017-03-31T04:16:15.430Z,1017.55
2017-03-31T04:17:15.459Z,1017.56
2017-03-31T04:18:15.492Z,1017.57
2017-03-31T04:19:15.507Z,1017.53
2017-03-31T04:20:15.539Z,1017.54
2017-03-31T04:21:15.572Z,1017.55
2017-03-31T04:22:15.604Z,1017.59
2017-03-31T04:23:15.640Z,1017.56
2017-03-31T04:24:15.673Z,1017.58
2017-03-31T04:25:15.697Z,1017.61
2017-03-31T04:26:15.732Z,1017.58
2017-03-31T04:27:15.756Z,1017.61
2017-03-31T04:28:15.787Z,1017.55
2017-03-31T04:29:15.814Z,1017.58
2017-03-31T04:30:15.847Z,1017.61
2017-03-31T04:31:15.884Z,1017.69
2017-03-31T04:32:15.902Z,1017.63
2017-03-31T04:33:15.938Z,1017.6
2017-03-31T04:34:15.965Z,1017.6
2017-03-31T04:35:16.029Z,1017.63
2017-03-31T04:36:16.027Z,1017.66
2017-03-31T04:37:16.072Z,1017.64
2017-03-31T04:38:16.089Z,1017.58
2017-03-31T04:39:16.121Z,1017.55
2017-03-31T04:40:16.147Z,1017.58
2017-03-31T04:41:16.167Z,1017.58
2017-03-31T04:42:16.204Z,1017.56
2017-03-31T04:43:16.230Z,1017.57
2017-03-31T04:44:16.271Z,1017.54
2017-03-31T04:45:16.293Z,1017.54
2017-03-31T04:46:16.334Z,1017.54
2017-03-31T04:47:16.351Z,1017.52
2017-03-31T04:48:16.420Z,1017.57
2017-03-31T04:49:16.412Z,1017.54
2017-03-31T04:50:16.601Z,1017.55
2017-03-31T04:51:16.507Z,1017.6
2017-03-31T04:52:16.502Z,1017.48
2017-03-31T04:53:16.533Z,1017.5
2017-03-31T04:54:16.565Z,1017.52
2017-03-31T04:55:16.631Z,1017.5
2017-03-31T04:56:16.618Z,1017.49
2017-03-31T04:57:16.653Z,1017.51
2017-03-31T04:58:16.691Z,1017.52
2017-03-31T04:59:16.712Z,1017.49
2017-03-31T05:00:23.847Z,1017.54
2017-03-31T05:01:16.769Z,1017.55
2017-03-31T05:02:16.801Z,1017.5
2017-03-31T05:03:16.832Z,1017.54
2017-03-31T05:04:16.868Z,1017.56
2017-03-31T05:05:16.921Z,1017.48
2017-03-31T05:06:16.919Z,1017.46
2017-03-31T05:07:16.954Z,1017.47
2017-03-31T05:08:17.017Z,1017.5
2017-03-31T05:09:17.009Z,1017.54
2017-03-31T05:10:17.041Z,1017.52
2017-03-31T05:11:17.070Z,1017.53
2017-03-31T05:12:17.098Z,1017.51
2017-03-31T05:13:17.135Z,1017.52
2017-03-31T05:14:17.173Z,1017.5
2017-03-31T05:15:17.200Z,1017.54
2017-03-31T05:16:17.212Z,1017.55
2017-03-31T05:17:17.253Z,1017.49
2017-03-31T05:18:17.287Z,1017.53
2017-03-31T05:19:17.316Z,1017.57
2017-03-31T05:20:17.342Z,1017.54
2017-03-31T05:21:17.377Z,1017.58
2017-03-31T05:22:17.408Z,1017.56
2017-03-31T05:23:17.426Z,1017.57
2017-03-31T05:24:17.461Z,1017.57
2017-03-31T05:25:17.490Z,1017.54
2017-03-31T05:26:17.531Z,1017.56
2017-03-31T05:27:17.557Z,1017.56
2017-03-31T05:28:17.578Z,1017.57
2017-03-31T05:29:17.613Z,1017.52
2017-03-31T05:30:17.649Z,1017.56
2017-03-31T05:31:17.975Z,1017.53
2017-03-31T05:32:17.740Z,1017.53
2017-03-31T05:33:17.728Z,1017.56
2017-03-31T05:34:17.777Z,1017.54
2017-03-31T05:35:17.800Z,1017.5
2017-03-31T05:36:17.833Z,1017.49
2017-03-31T05:37:17.853Z,1017.53
2017-03-31T05:38:17.924Z,1017.52
2017-03-31T05:39:17.912Z,1017.55
2017-03-31T05:40:17.953Z,1017.5
2017-03-31T05:41:17.976Z,1017.54
2017-03-31T05:42:18.009Z,1017.47
2017-03-31T05:43:18.073Z,1017.52
2017-03-31T05:44:18.071Z,1017.53
2017-03-31T05:45:18.128Z,1017.52
2017-03-31T05:46:18.136Z,1017.57
2017-03-31T05:47:18.201Z,1017.55
2017-03-31T05:48:18.201Z,1017.58
2017-03-31T05:49:18.414Z,1017.59
2017-03-31T05:50:18.253Z,1017.53
2017-03-31T05:51:18.321Z,1017.53
2017-03-31T05:52:18.321Z,1017.54
2017-03-31T05:53:18.383Z,1017.57
2017-03-31T05:54:18.377Z,1017.49
2017-03-31T05:55:18.439Z,1017.52
2017-03-31T05:56:18.477Z,1017.47
2017-03-31T05:57:18.475Z,1017.47
2017-03-31T05:58:18.504Z,1017.45
2017-03-31T05:59:18.542Z,1017.37
2017-03-31T06:00:18.601Z,1017.4
2017-03-31T06:01:18.724Z,1017.4
2017-03-31T06:02:18.785Z,1017.4
2017-03-31T06:03:18.828Z,1017.42
2017-03-31T06:04:18.890Z,1017.4
2017-03-31T06:05:18.854Z,1017.4
2017-03-31T06:06:18.888Z,1017.4
2017-03-31T06:07:18.909Z,1017.38
2017-03-31T06:08:18.953Z,1017.43
2017-03-31T06:09:18.985Z,1017.46
2017-03-31T06:10:19.010Z,1017.42
2017-03-31T06:11:19.051Z,1017.38
2017-03-31T06:12:19.085Z,1017.39
2017-03-31T06:13:19.129Z,1017.37
2017-03-31T06:14:19.139Z,1017.32
2017-03-31T06:15:19.180Z,1017.35
2017-03-31T06:16:19.206Z,1017.32
2017-03-31T06:17:19.237Z,1017.33
2017-03-31T06:18:19.277Z,1017.31
2017-03-31T06:19:19.310Z,1017.32
2017-03-31T06:20:19.372Z,1017.3
2017-03-31T06:21:19.362Z,1017.31
2017-03-31T06:22:19.401Z,1017.34
2017-03-31T06:23:19.444Z,1017.32
2017-03-31T06:24:19.478Z,1017.42
2017-03-31T06:25:19.501Z,1017.45
2017-03-31T06:26:19.534Z,1017.44
2017-03-31T06:27:19.577Z,1017.4
2017-03-31T06:28:19.635Z,1017.47
2017-03-31T06:29:19.641Z,1017.5
2017-03-31T06:30:19.788Z,1017.65
2017-03-31T06:31:19.706Z,1017.75
2017-03-31T06:32:19.757Z,1017.88
2017-03-31T06:33:19.766Z,1018.01
2017-03-31T06:34:19.805Z,1018.07
2017-03-31T06:35:19.961Z,1018.1
2017-03-31T06:36:19.864Z,1018.11
2017-03-31T06:37:19.912Z,1018.09
2017-03-31T06:38:19.935Z,1018.12
2017-03-31T06:39:19.981Z,1018
2017-03-31T06:40:20.016Z,1018.01
2017-03-31T06:41:20.041Z,1018.02
2017-03-31T06:42:20.101Z,1018.06
2017-03-31T06:43:20.147Z,1018.04
2017-03-31T06:44:20.150Z,1018.03
2017-03-31T06:45:20.191Z,1017.97
2017-03-31T06:46:20.217Z,1018
2017-03-31T06:47:20.255Z,1018
2017-03-31T06:48:20.291Z,1018.07
2017-03-31T06:49:20.327Z,1018.2
2017-03-31T06:50:20.367Z,1018.3
2017-03-31T06:51:20.391Z,1018.21
2017-03-31T06:52:20.428Z,1018.19
2017-03-31T06:53:20.468Z,1018.31
2017-03-31T06:54:20.501Z,1018.28
2017-03-31T06:55:20.539Z,1018.28
2017-03-31T06:56:20.578Z,1018.31
2017-03-31T06:57:20.652Z,1018.33
2017-03-31T06:58:20.644Z,1018.36
2017-03-31T06:59:20.688Z,1018.39
2017-03-31T07:00:20.735Z,1018.42
2017-03-31T07:01:20.759Z,1018.42
2017-03-31T07:02:20.809Z,1018.49
2017-03-31T07:03:20.838Z,1018.49
2017-03-31T07:04:20.927Z,1018.47
2017-03-31T07:05:20.903Z,1018.46
2017-03-31T07:06:20.969Z,1018.4
2017-03-31T07:07:20.996Z,1018.57
2017-03-31T07:08:21.025Z,1018.64
2017-03-31T07:09:21.058Z,1018.48
2017-03-31T07:10:21.102Z,1018.53
2017-03-31T07:11:21.137Z,1018.53
2017-03-31T07:12:21.167Z,1018.52
2017-03-31T07:13:21.219Z,1018.55
2017-03-31T07:14:21.252Z,1018.48
2017-03-31T07:15:21.289Z,1018.4
2017-03-31T07:16:21.324Z,1018.41
2017-03-31T07:17:21.370Z,1018.4
2017-03-31T07:18:21.398Z,1018.39
2017-03-31T07:19:21.438Z,1018.38
2017-03-31T07:20:21.484Z,1018.42
2017-03-31T07:21:21.510Z,1018.37
2017-03-31T07:22:21.555Z,1018.36
2017-03-31T07:23:21.594Z,1018.29
2017-03-31T07:24:21.632Z,1018.35
2017-03-31T07:25:21.707Z,1018.29
2017-03-31T07:26:21.700Z,1018.28
2017-03-31T07:27:21.747Z,1018.32
2017-03-31T07:28:21.784Z,1018.38
2017-03-31T07:29:21.833Z,1018.46
2017-03-31T07:30:21.871Z,1018.44
2017-03-31T07:31:21.907Z,1018.38
2017-03-31T07:32:21.948Z,1018.34
2017-03-31T07:33:21.987Z,1018.26
2017-03-31T07:34:22.026Z,1018.16
2017-03-31T07:35:22.056Z,1018.13
2017-03-31T07:36:22.411Z,1018.11
2017-03-31T07:37:22.147Z,1018.13
2017-03-31T07:38:22.185Z,1018.05
2017-03-31T07:39:22.260Z,1018.03
2017-03-31T07:40:22.256Z,1018.02
2017-03-31T07:41:22.302Z,1017.92
2017-03-31T07:42:22.380Z,1017.92
2017-03-31T07:43:22.417Z,1017.92
2017-03-31T07:44:22.429Z,1017.9
2017-03-31T07:45:22.474Z,1017.73
2017-03-31T07:46:22.499Z,1017.74
2017-03-31T07:47:22.557Z,1017.73
2017-03-31T07:48:22.595Z,1017.7
2017-03-31T07:49:22.630Z,1017.63
2017-03-31T07:50:22.663Z,1017.58
2017-03-31T07:51:22.720Z,1017.48
2017-03-31T07:52:22.774Z,1017.34
2017-03-31T07:53:22.792Z,1017.27
2017-03-31T07:54:22.831Z,1017.41
2017-03-31T07:55:22.875Z,1017.43
2017-03-31T07:56:22.915Z,1017.33
2017-03-31T07:57:22.954Z,1017.36
2017-03-31T07:58:22.995Z,1017.28
2017-03-31T07:59:23.056Z,1017.32
2017-03-31T08:00:23.090Z,1017.25
2017-03-31T08:01:23.125Z,1017.25
2017-03-31T08:02:23.172Z,1017.21
2017-03-31T08:03:23.213Z,1017.24
2017-03-31T08:04:23.256Z,1017.2
2017-03-31T08:05:23.291Z,1017.21
2017-03-31T08:06:23.347Z,1017.1
2017-03-31T08:07:23.381Z,1017.11
2017-03-31T08:08:23.434Z,1017.12
2017-03-31T08:09:23.459Z,1017.07
2017-03-31T08:10:23.502Z,1017.04
2017-03-31T08:11:23.558Z,1017.01
2017-03-31T08:12:23.580Z,1016.95
2017-03-31T08:13:23.630Z,1017.04
2017-03-31T08:14:23.678Z,1017.07
2017-03-31T08:15:23.709Z,1017.04
2017-03-31T08:16:23.754Z,1017.01
2017-03-31T08:17:23.797Z,1016.92
2017-03-31T08:18:23.845Z,1016.91
2017-03-31T08:19:23.885Z,1016.93
2017-03-31T08:20:23.929Z,1017.02
2017-03-31T08:21:23.970Z,1016.98
2017-03-31T08:22:24.005Z,1016.97
2017-03-31T08:23:24.062Z,1016.95
2017-03-31T08:24:24.099Z,1016.89
2017-03-31T08:25:24.133Z,1016.86
2017-03-31T08:26:24.179Z,1016.83
2017-03-31T08:27:24.227Z,1016.87
2017-03-31T08:28:24.274Z,1016.82
2017-03-31T08:29:24.317Z,1016.8
2017-03-31T08:30:24.363Z,1016.73
2017-03-31T08:31:24.431Z,1016.77
2017-03-31T08:32:24.446Z,1016.82
2017-03-31T08:33:24.483Z,1016.81
2017-03-31T08:34:24.533Z,1016.71
2017-03-31T08:35:24.577Z,1016.77
2017-03-31T08:36:24.605Z,1016.75
2017-03-31T08:37:24.663Z,1016.83
2017-03-31T08:38:24.711Z,1016.75
2017-03-31T08:39:24.733Z,1016.76
2017-03-31T08:40:24.784Z,1016.68
2017-03-31T08:41:24.833Z,1016.72
2017-03-31T08:42:24.866Z,1016.77
2017-03-31T08:43:24.914Z,1016.79
2017-03-31T08:44:24.967Z,1016.75
2017-03-31T08:45:25.008Z,1016.75
2017-03-31T08:46:25.054Z,1016.72
2017-03-31T08:47:25.086Z,1016.74
2017-03-31T08:48:25.135Z,1016.73
2017-03-31T08:49:25.182Z,1016.77
2017-03-31T08:50:25.215Z,1016.77
2017-03-31T08:51:25.256Z,1016.81
2017-03-31T08:52:25.305Z,1016.88
2017-03-31T08:53:25.347Z,1016.81
2017-03-31T08:54:25.387Z,1016.88
2017-03-31T08:55:25.471Z,1016.79
2017-03-31T08:56:25.477Z,1016.85
2017-03-31T08:57:25.534Z,1016.8
2017-03-31T08:58:25.577Z,1016.81
2017-03-31T08:59:25.629Z,1016.82
2017-03-31T09:00:25.657Z,1016.82
2017-03-31T09:01:25.712Z,1016.79
2017-03-31T09:02:25.811Z,1016.82
2017-03-31T09:03:25.800Z,1016.76
2017-03-31T09:04:25.849Z,1016.82
2017-03-31T09:05:25.920Z,1016.82
2017-03-31T09:06:25.939Z,1016.81
2017-03-31T09:07:25.979Z,1016.8
2017-03-31T09:08:26.052Z,1016.82
2017-03-31T09:09:26.069Z,1016.73
2017-03-31T09:10:26.210Z,1016.72
2017-03-31T09:11:26.157Z,1016.76
2017-03-31T09:12:26.199Z,1016.83
2017-03-31T09:13:26.250Z,1016.74
2017-03-31T09:14:26.298Z,1016.82
2017-03-31T09:15:26.345Z,1016.82
2017-03-31T09:16:26.391Z,1016.78
2017-03-31T09:17:26.429Z,1016.71
2017-03-31T09:18:26.477Z,1016.68
2017-03-31T09:19:26.529Z,1016.68
2017-03-31T09:20:26.557Z,1016.63
2017-03-31T09:21:26.616Z,1016.61
2017-03-31T09:22:26.655Z,1016.64
2017-03-31T09:23:26.699Z,1016.59
2017-03-31T09:24:26.748Z,1016.59
2017-03-31T09:25:26.780Z,1016.51
2017-03-31T09:26:26.832Z,1016.58
2017-03-31T09:27:26.868Z,1016.57
2017-03-31T09:28:26.921Z,1016.57
2017-03-31T09:29:26.964Z,1016.63
2017-03-31T09:30:27.039Z,1016.59
2017-03-31T09:31:27.057Z,1016.61
2017-03-31T09:32:27.092Z,1016.62
2017-03-31T09:33:27.150Z,1016.67
2017-03-31T09:34:27.203Z,1016.68
2017-03-31T09:35:27.241Z,1016.67
2017-03-31T09:36:27.265Z,1016.62
2017-03-31T09:37:27.355Z,1016.68
2017-03-31T09:38:27.359Z,1016.56
2017-03-31T09:39:27.422Z,1016.63
2017-03-31T09:40:27.457Z,1016.68
2017-03-31T09:41:27.501Z,1016.69
2017-03-31T09:42:27.543Z,1016.75
2017-03-31T09:43:27.595Z,1016.71
2017-03-31T09:44:27.649Z,1016.75
2017-03-31T09:45:27.667Z,1016.73
2017-03-31T09:46:27.746Z,1016.79
2017-03-31T09:47:27.764Z,1016.74
2017-03-31T09:48:27.812Z,1016.69
2017-03-31T09:49:27.857Z,1016.74
2017-03-31T09:50:28.081Z,1016.75
2017-03-31T09:51:27.973Z,1016.68
2017-03-31T09:52:27.980Z,1016.58
2017-03-31T09:53:28.053Z,1016.64
2017-03-31T09:54:28.074Z,1016.53
2017-03-31T09:55:28.117Z,1016.51
2017-03-31T09:56:28.173Z,1016.57
2017-03-31T09:57:28.226Z,1016.52
2017-03-31T09:58:28.265Z,1016.44
2017-03-31T09:59:28.307Z,1016.44
2017-03-31T10:00:28.353Z,1016.5
2017-03-31T10:01:28.388Z,1016.48
2017-03-31T10:02:28.667Z,1016.56
2017-03-31T10:03:28.489Z,1016.58
2017-03-31T10:04:28.559Z,1016.62
2017-03-31T10:05:28.826Z,1016.63
2017-03-31T10:06:28.618Z,1016.68
2017-03-31T10:07:28.670Z,1016.65
2017-03-31T10:08:28.704Z,1016.55
2017-03-31T10:09:28.789Z,1016.58
2017-03-31T10:10:28.795Z,1016.57
2017-03-31T10:11:28.850Z,1016.54
2017-03-31T10:12:28.884Z,1016.47
2017-03-31T10:13:28.942Z,1016.48
2017-03-31T10:14:28.976Z,1016.38
2017-03-31T10:15:29.055Z,1016.43
2017-03-31T10:16:29.073Z,1016.54
2017-03-31T10:17:29.115Z,1016.66
2017-03-31T10:18:29.168Z,1016.68
2017-03-31T10:19:29.204Z,1016.74
2017-03-31T10:20:29.258Z,1016.64
2017-03-31T10:21:29.288Z,1016.57
2017-03-31T10:22:29.588Z,1016.65
2017-03-31T10:23:29.375Z,1016.71
2017-03-31T10:24:29.420Z,1016.77
2017-03-31T10:25:29.507Z,1016.59
2017-03-31T10:26:29.497Z,1016.53
2017-03-31T10:27:29.551Z,1016.71
2017-03-31T10:28:29.596Z,1016.88
2017-03-31T10:29:29.647Z,1017.02
2017-03-31T10:30:29.672Z,1017.08
2017-03-31T10:31:29.730Z,1017
2017-03-31T10:32:29.787Z,1016.87
2017-03-31T10:33:29.811Z,1016.85
2017-03-31T10:34:29.863Z,1016.84
2017-03-31T10:35:29.892Z,1016.89
2017-03-31T10:36:29.941Z,1016.79
2017-03-31T10:37:29.987Z,1016.81
2017-03-31T10:38:30.034Z,1016.75
2017-03-31T10:39:30.077Z,1016.79
2017-03-31T10:40:30.141Z,1016.98
2017-03-31T10:41:30.156Z,1016.94
2017-03-31T10:42:30.194Z,1017
2017-03-31T10:43:30.273Z,1017.3
2017-03-31T10:44:30.273Z,1017.29
2017-03-31T10:45:30.313Z,1017.3
2017-03-31T10:46:30.401Z,1017.36
2017-03-31T10:47:30.416Z,1017.37
2017-03-31T10:48:30.465Z,1017.55
2017-03-31T10:49:30.486Z,1017.58
2017-03-31T10:50:30.538Z,1017.93
2017-03-31T10:51:30.566Z,1017.76
2017-03-31T10:52:30.622Z,1017.5
2017-03-31T10:53:30.693Z,1017.64
2017-03-31T10:54:30.701Z,1017.58
2017-03-31T10:55:30.735Z,1017.29
2017-03-31T10:56:30.820Z,1017.47
2017-03-31T10:57:30.825Z,1016.18
2017-03-31T10:58:30.872Z,1015.36
2017-03-31T10:59:30.942Z,1015.23
2017-03-31T11:00:30.948Z,1015.14
2017-03-31T11:01:31.015Z,1015.05
2017-03-31T11:02:31.038Z,1014.99
2017-03-31T11:03:31.088Z,1015.02
2017-03-31T11:04:31.112Z,1014.98
2017-03-31T11:05:31.165Z,1014.96
2017-03-31T11:06:31.205Z,1014.91
2017-03-31T11:07:31.238Z,1014.9
2017-03-31T11:08:31.283Z,1014.86
2017-03-31T11:09:31.321Z,1014.89
2017-03-31T11:10:31.370Z,1014.81
2017-03-31T11:11:44.138Z,1014.9
2017-03-31T11:12:31.442Z,1014.83
2017-03-31T11:13:31.506Z,1014.78
2017-03-31T11:14:31.530Z,1014.76
2017-03-31T11:15:31.565Z,1014.69
2017-03-31T11:16:31.608Z,1014.68
2017-03-31T11:17:31.657Z,1014.73
2017-03-31T11:18:31.719Z,1014.67
2017-03-31T11:19:31.754Z,1014.64
2017-03-31T11:20:31.792Z,1014.58
2017-03-31T11:21:31.845Z,1014.52
2017-03-31T11:22:31.846Z,1014.58
2017-03-31T11:23:31.893Z,1014.54
2017-03-31T11:24:31.958Z,1014.55
2017-03-31T11:25:32.001Z,1014.55
2017-03-31T11:26:32.043Z,1014.63
2017-03-31T11:27:32.108Z,1014.6
2017-03-31T11:28:32.118Z,1014.55
2017-03-31T11:29:32.158Z,1014.52
2017-03-31T11:30:32.200Z,1014.47
2017-03-31T11:31:32.201Z,1014.5
2017-03-31T11:32:32.245Z,1014.44
2017-03-31T11:33:32.308Z,1014.45
2017-03-31T11:34:32.340Z,1014.47
2017-03-31T11:35:32.379Z,1014.46
2017-03-31T11:36:32.439Z,1014.51
2017-03-31T11:37:32.462Z,1014.41
2017-03-31T11:38:32.495Z,1014.44
2017-03-31T11:39:32.563Z,1014.39
2017-03-31T11:40:32.559Z,1014.36
2017-03-31T11:41:32.621Z,1014.39
2017-03-31T11:42:32.688Z,1014.42
2017-03-31T11:43:32.721Z,1014.36
2017-03-31T11:44:32.759Z,1014.37
2017-03-31T11:45:32.774Z,1014.35
2017-03-31T11:46:32.817Z,1014.39
2017-03-31T11:47:32.861Z,1014.27
2017-03-31T11:48:32.902Z,1014.28
2017-03-31T11:49:32.941Z,1014.24
2017-03-31T11:50:32.975Z,1014.2
2017-03-31T11:51:33.021Z,1014.19
2017-03-31T11:52:33.081Z,1014.27
2017-03-31T11:53:33.124Z,1014.19
2017-03-31T11:54:33.168Z,1014.18
2017-03-31T11:55:33.155Z,1014.12
2017-03-31T11:56:33.221Z,1014.11
2017-03-31T11:57:33.282Z,1014.08
2017-03-31T11:58:33.315Z,1014.06
2017-03-31T11:59:33.357Z,1014
2017-03-31T12:00:33.372Z,1014.07
2017-03-31T12:01:33.406Z,1013.99
2017-03-31T12:02:33.482Z,1013.98
2017-03-31T12:03:33.487Z,1013.98
2017-03-31T12:04:33.535Z,1014.07
2017-03-31T12:05:33.597Z,1013.94
2017-03-31T12:06:33.606Z,1013.88
2017-03-31T12:07:33.651Z,1013.97
2017-03-31T12:08:33.692Z,1013.86